createdAt,value
2022-08-16T00:03:44.126Z,97030.84
2022-08-16T00:08:46.537Z,97040.16
2022-08-16T00:13:54.222Z,97041.84
2022-08-16T00:18:56.925Z,97046.16
2022-08-16T00:24:00.747Z,97047.41
2022-08-16T00:29:06.751Z,97049.69
2022-08-16T00:34:08.704Z,97059.94
2022-08-16T00:39:20.489Z,97058.22
2022-08-16T00:44:23.257Z,97062.53
2022-08-16T00:49:39.126Z,97059.41
2022-08-16T00:54:42.106Z,97061.88
2022-08-16T00:59:54.624Z,97067.13
2022-08-16T01:05:09.334Z,97062.34
2022-08-16T01:10:16.169Z,97075.53
2022-08-16T01:15:18.945Z,97073.03
2022-08-16T01:20:30.275Z,97074.97
2022-08-16T01:25:37.656Z,97076.38
2022-08-16T01:30:49.702Z,97075.09
2022-08-16T01:35:57.546Z,97068.44
2022-08-16T01:41:13.243Z,97071.56
2022-08-16T01:46:39.731Z,97068.66
2022-08-16T01:52:02.546Z,97072.41
2022-08-16T01:57:25.319Z,97078.06
2022-08-16T02:02:29.995Z,97072.31
2022-08-16T02:07:35.940Z,97077.75
2022-08-16T02:12:50.340Z,97069.31
2022-08-16T02:17:57.091Z,97067.00
2022-08-16T02:23:01.573Z,97068.59
2022-08-16T02:28:04.210Z,97077.25
2022-08-16T02:33:07.619Z,97075.28
2022-08-16T02:38:10.435Z,97081.22
2022-08-16T02:43:13.676Z,97083.69
2022-08-16T02:48:29.459Z,97081.25
2022-08-16T02:53:35.364Z,97086.19
2022-08-16T02:58:38.984Z,97087.47
2022-08-16T03:04:40.087Z,97090.69
2022-08-16T03:09:05.461Z,97089.66
2022-08-16T03:14:12.418Z,97093.38
2022-08-16T03:19:15.549Z,97098.94
2022-08-16T03:24:29.127Z,97100.59
2022-08-16T03:29:33.813Z,97092.81
2022-08-16T03:34:38.188Z,97096.22
2022-08-16T03:39:42.795Z,97099.03
2022-08-16T03:44:49.490Z,97092.63
2022-08-16T03:49:53.867Z,97096.88
2022-08-16T03:54:58.107Z,97107.94
2022-08-16T04:00:01.856Z,97114.03
2022-08-16T04:05:16.901Z,97118.69
2022-08-16T04:10:36.956Z,97123.94
2022-08-16T04:15:40.956Z,97126.97
2022-08-16T04:20:56.401Z,97128.16
2022-08-16T04:26:03.946Z,97131.69
2022-08-16T04:31:10.576Z,97134.34
2022-08-16T04:36:20.196Z,97135.78
2022-08-16T04:41:32.794Z,97133.94
2022-08-16T04:47:01.473Z,97133.47
2022-08-16T04:52:05.637Z,97145.28
2022-08-16T04:57:30.099Z,97157.44
2022-08-16T05:02:41.439Z,97155.97
2022-08-16T05:07:58.390Z,97169.38
2022-08-16T05:13:04.248Z,97177.25
2022-08-16T05:18:16.153Z,97175.59
2022-08-16T05:23:31.737Z,97174.50
2022-08-16T05:28:39.020Z,97174.66
2022-08-16T05:33:43.104Z,97187.50
2022-08-16T05:38:46.241Z,97183.00
2022-08-16T05:43:49.847Z,97174.03
2022-08-16T05:49:05.691Z,97170.72
2022-08-16T05:54:13.925Z,97180.78
2022-08-16T05:59:18.157Z,97175.69
2022-08-16T06:04:34.514Z,97181.50
2022-08-16T06:09:44.085Z,97184.44
2022-08-16T06:14:51.228Z,97180.63
2022-08-16T06:19:55.124Z,97183.22
2022-08-16T06:25:00.746Z,97200.81
2022-08-16T06:30:03.202Z,97208.59
2022-08-16T06:35:07.343Z,97218.28
2022-08-16T06:40:12.885Z,97214.38
2022-08-16T06:45:24.096Z,97225.44
2022-08-16T06:50:41.859Z,97229.50
2022-08-16T06:55:45.175Z,97226.97
2022-08-16T07:00:49.596Z,97228.50
2022-08-16T07:05:53.932Z,97235.19
2022-08-16T07:11:02.385Z,97236.25
2022-08-16T07:16:15.397Z,97236.97
2022-08-16T07:21:19.916Z,97249.69
2022-08-16T07:26:25.758Z,97256.06
2022-08-16T07:31:38.151Z,97254.06
2022-08-16T07:36:45.728Z,97263.75
2022-08-16T07:42:01.365Z,97258.81
2022-08-16T07:47:04.257Z,97268.94
2022-08-16T07:52:19.047Z,97272.44
2022-08-16T07:57:24.200Z,97266.69
2022-08-16T08:02:29.220Z,97274.66
2022-08-16T08:07:33.009Z,97267.78
2022-08-16T08:12:39.040Z,97274.44
2022-08-16T08:17:44.090Z,97279.19
2022-08-16T08:22:53.990Z,97291.84
2022-08-16T08:28:04.286Z,97293.16
2022-08-16T08:33:13.231Z,97286.22
2022-08-16T08:38:43.715Z,97282.91
2022-08-16T08:43:43.104Z,97280.34
2022-08-16T08:48:59.827Z,97279.50
2022-08-16T08:54:06.933Z,97279.25
2022-08-16T08:59:20.512Z,97282.28
2022-08-16T09:04:26.766Z,97296.97
2022-08-16T09:09:33.699Z,97293.72
2022-08-16T09:14:47.120Z,97290.53
2022-08-16T09:19:57.184Z,97290.13
2022-08-16T09:25:00.732Z,97292.47
2022-08-16T09:30:33.670Z,97287.50
2022-08-16T09:35:38.680Z,97283.06
2022-08-16T09:40:47.132Z,97289.88
2022-08-16T09:45:49.460Z,97286.66
2022-08-16T09:50:56.507Z,97284.44
2022-08-16T09:55:59.531Z,97288.44
2022-08-16T10:01:01.328Z,97284.25
2022-08-16T10:06:03.393Z,97278.63
2022-08-16T10:11:24.678Z,97279.03
2022-08-16T10:16:27.190Z,97281.44
2022-08-16T10:21:32.146Z,97279.75
2022-08-16T10:27:19.425Z,97263.13
2022-08-16T10:31:56.880Z,97273.38
2022-08-16T10:37:00.552Z,97261.69
2022-08-16T10:42:02.488Z,97265.75
2022-08-16T10:47:05.291Z,97267.91
2022-08-16T10:52:18.600Z,97262.41
2022-08-16T10:57:24.589Z,97257.44
2022-08-16T11:02:58.362Z,97251.66
2022-08-16T11:07:53.296Z,97249.91
2022-08-16T11:12:56.453Z,97250.78
2022-08-16T11:23:21.540Z,97255.03
2022-08-16T11:33:53.530Z,97258.88
2022-08-16T11:39:00.207Z,97265.91
2022-08-16T11:44:03.296Z,97254.81
2022-08-16T11:49:11.192Z,97252.25
2022-08-16T11:54:21.695Z,97251.75
2022-08-16T11:59:28.886Z,97256.28
2022-08-16T12:04:31.560Z,97244.72
2022-08-16T12:09:33.997Z,97238.72
2022-08-16T12:14:41.934Z,97241.91
2022-08-16T12:19:47.595Z,97233.13
2022-08-16T12:24:52.087Z,97243.00
2022-08-16T12:29:58.559Z,97242.00
2022-08-16T12:35:01.849Z,97239.38
2022-08-16T12:40:07.718Z,97240.41
2022-08-16T12:45:31.649Z,97234.97
2022-08-16T12:50:34.041Z,97244.13
2022-08-16T12:55:41.797Z,97233.13
2022-08-16T13:00:46.452Z,97231.25
2022-08-16T13:05:55.523Z,97234.56
2022-08-16T13:10:58.686Z,97231.63
2022-08-16T13:16:10.816Z,97226.97
2022-08-16T13:21:23.766Z,97231.06
2022-08-16T13:26:27.563Z,97228.09
2022-08-16T13:31:29.431Z,97233.44
2022-08-16T13:36:48.588Z,97229.22
2022-08-16T13:41:54.476Z,97227.28
2022-08-16T13:46:57.434Z,97228.56
2022-08-16T13:51:59.420Z,97228.72
2022-08-16T13:57:01.963Z,97234.16
2022-08-16T14:02:07.977Z,97236.59
2022-08-16T14:07:13.480Z,97237.78
2022-08-16T14:12:30.509Z,97246.34
2022-08-16T14:18:15.198Z,97247.13
2022-08-16T14:22:55.352Z,97236.28
2022-08-16T14:27:57.400Z,97235.69
2022-08-16T14:33:00.083Z,97229.44
2022-08-16T14:38:02.158Z,97224.31
2022-08-16T14:43:07.416Z,97227.94
2022-08-16T14:48:09.764Z,97229.47
2022-08-16T14:53:12.700Z,97234.66
2022-08-16T14:58:19.479Z,97229.03
2022-08-16T15:03:23.283Z,97230.59
2022-08-16T15:08:36.285Z,97224.75
2022-08-16T15:13:41.168Z,97221.13
2022-08-16T15:18:42.999Z,97222.41
2022-08-16T15:23:48.549Z,97212.97
2022-08-16T15:28:51.628Z,97214.97
2022-08-16T15:33:56.461Z,97215.75
2022-08-16T15:39:07.058Z,97212.47
2022-08-16T15:44:24.822Z,97221.31
2022-08-16T15:49:37.434Z,97224.75
2022-08-16T15:54:53.432Z,97223.16
2022-08-16T16:00:04.309Z,97221.56
2022-08-16T16:05:18.889Z,97225.22
2022-08-16T16:10:21.552Z,97224.91
2022-08-16T16:15:29.533Z,97222.38
2022-08-16T16:20:32.410Z,97211.31
2022-08-16T16:25:36.218Z,97210.78
2022-08-16T16:30:45.241Z,97212.69
2022-08-16T16:35:56.634Z,97216.81
2022-08-16T16:41:02.665Z,97215.00
2022-08-16T16:46:39.249Z,97207.31
2022-08-16T16:51:28.978Z,97212.19
2022-08-16T16:56:36.922Z,97210.50
2022-08-16T17:01:59.761Z,97217.91
2022-08-16T17:07:10.758Z,97220.25
2022-08-16T17:12:23.507Z,97218.03
2022-08-16T17:17:38.954Z,97222.03
2022-08-16T17:22:57.324Z,97219.22
2022-08-16T17:28:01.105Z,97230.50
2022-08-16T17:33:22.903Z,97231.28
2022-08-16T17:38:38.737Z,97232.88
2022-08-16T17:43:45.516Z,97245.75
2022-08-16T17:48:47.446Z,97252.72
2022-08-16T17:53:50.697Z,97254.75
2022-08-16T17:58:52.427Z,97253.44
2022-08-16T18:04:07.247Z,97259.91
2022-08-16T18:09:11.096Z,97263.50
2022-08-16T18:14:18.891Z,97264.09
2022-08-16T18:19:40.495Z,97271.41
2022-08-16T18:24:42.263Z,97269.59
2022-08-16T18:29:44.170Z,97275.97
2022-08-16T18:34:46.093Z,97282.38
2022-08-16T18:39:47.825Z,97272.03
2022-08-16T18:44:49.510Z,97282.09
2022-08-16T18:49:51.203Z,97290.81
2022-08-16T18:55:01.969Z,97300.06
2022-08-16T19:00:15.606Z,97299.72
2022-08-16T19:05:26.526Z,97307.59
2022-08-16T19:10:29.931Z,97312.59
2022-08-16T19:15:31.665Z,97321.28
2022-08-16T19:20:33.452Z,97324.91
2022-08-16T19:25:48.567Z,97336.56
2022-08-16T19:30:51.401Z,97328.75
2022-08-16T19:35:53.041Z,97333.19
2022-08-16T19:40:54.788Z,97342.19
2022-08-16T19:45:56.524Z,97338.44
2022-08-16T19:50:58.236Z,97341.59
2022-08-16T19:55:59.845Z,97353.41
2022-08-16T20:01:01.543Z,97357.53
2022-08-16T20:06:03.172Z,97361.69
2022-08-16T20:11:05.211Z,97357.94
2022-08-16T20:16:07.042Z,97351.81
2022-08-16T20:21:08.686Z,97359.47
2022-08-16T20:26:12.896Z,97357.34
2022-08-16T20:31:14.608Z,97366.00
2022-08-16T20:36:16.824Z,97363.13
2022-08-16T20:41:18.820Z,97356.75
2022-08-16T20:46:20.561Z,97359.41
2022-08-16T20:51:22.228Z,97360.34
2022-08-16T20:56:23.900Z,97355.75
2022-08-16T21:01:25.727Z,97358.28
2022-08-16T21:06:54.194Z,97365.56
2022-08-16T21:11:58.902Z,97369.09
2022-08-16T21:17:05.419Z,97365.75
2022-08-16T21:22:25.466Z,97370.59
2022-08-16T21:27:27.124Z,97373.38
2022-08-16T21:32:34.920Z,97376.72
2022-08-16T21:37:38.118Z,97382.47
2022-08-16T21:42:42.116Z,97376.16
2022-08-16T21:47:44.180Z,97366.66
2022-08-16T21:52:46.057Z,97370.53
2022-08-16T21:57:47.879Z,97373.16
2022-08-16T22:02:52.878Z,97371.03
2022-08-16T22:07:59.499Z,97379.53
2022-08-16T22:13:16.135Z,97379.31
2022-08-16T22:18:18.246Z,97384.44
2022-08-16T22:23:26.215Z,97382.91
2022-08-16T22:28:28.058Z,97374.88
2022-08-16T22:33:29.991Z,97383.72
2022-08-16T22:38:56.194Z,97372.84
2022-08-16T22:43:55.770Z,97380.41
2022-08-16T22:48:57.711Z,97383.31
2022-08-16T22:53:59.587Z,97380.50
2022-08-16T22:59:01.502Z,97380.44
2022-08-16T23:04:04.101Z,97379.78
2022-08-16T23:09:05.971Z,97373.88
2022-08-16T23:14:07.771Z,97371.69
2022-08-16T23:19:11.743Z,97375.28
2022-08-16T23:24:14.932Z,97366.16
2022-08-16T23:29:24.605Z,97360.16
2022-08-16T23:34:28.898Z,97354.47
2022-08-16T23:39:30.753Z,97360.91
2022-08-16T23:44:55.769Z,97358.72
2022-08-16T23:50:00.006Z,97359.25
2022-08-16T23:55:05.862Z,97353.91
